Main page
METAR-TAF:

METAR-TAF

Airports :

Tashkent, Uzbekistan

Tashkent International Airport

latitude: 41-16N, longitude: 069-16E, elevation: 489 m

Current weather observation

The report was made 23 minutes ago, at 13:30 UTC
Wind 4 kt from the South
Temperature 21°C
Humidity 33%
Pressure 1015 hPa
Visibility 10 km or more
no clouds below 1500 m and no cumulonimbus

METAR: UTTT 281330Z 19004KT CAVOK 21/04 Q1015 R26R/CLRD70 NOSIG

Time: 18:53 (13:53 UTC)

Forecast

The report was made 2 hours and 53 minutes ago, at 11:00 UTC
Forecast valid from 28 at 12 UTC to 29 at 12 UTC
Wind 10 kt from the East/Northeast
Visibility 10 km or more
no clouds below 1500 m and no cumulonimbus
Temporary
from 28 at 14 UTC to 29 at 02 UTC
Visibility: 3000 m
smoke, mist
Temporary
from 29 at 02 UTC to 29 at 12 UTC
Few clouds at a height of 6000 ft, Cumulonimbus.
Scattered clouds at a height of 10000 ft

TAF: UTTT 281100Z 2812/2912 06010KT CAVOK TEMPO 2814/2902 3000 FU BR TEMPO 2902/2912 FEW060CB SCT100

Weather observations and forecasts of more than 4000 airports (METAR and TAF reports).

The available stations are represented by yellow and red dots on the map.

Hover mouse over dot to see the name of the station.

Then click to see weather observations and forecasts.

To change the map : click on the green buttons with a black cross to zoom in, on the green button with a dash to zoom out, or on the green arrows for adjacent maps.


METAR-TAF: